sensor_id;sensor_type;location;lat;lon;timestamp;P1;durP1;ratioP1;P2;durP2;ratioP2
33830;SDS011;20137;48.834;8.732;2022-09-30T00:01:32;17.60;;;9.30;;
33830;SDS011;20137;48.834;8.732;2022-09-30T00:03:58;12.52;;;8.98;;
33830;SDS011;20137;48.834;8.732;2022-09-30T00:06:25;12.07;;;8.43;;
33830;SDS011;20137;48.834;8.732;2022-09-30T00:08:52;14.65;;;8.55;;
33830;SDS011;20137;48.834;8.732;2022-09-30T00:11:20;14.95;;;8.45;;
33830;SDS011;20137;48.834;8.732;2022-09-30T00:13:49;15.45;;;7.50;;
33830;SDS011;20137;48.834;8.732;2022-09-30T00:16:17;15.90;;;9.07;;
33830;SDS011;20137;48.834;8.732;2022-09-30T00:18:47;17.80;;;8.18;;
33830;SDS011;20137;48.834;8.732;2022-09-30T00:21:14;15.27;;;7.80;;
33830;SDS011;20137;48.834;8.732;2022-09-30T00:23:41;17.02;;;7.85;;
33830;SDS011;20137;48.834;8.732;2022-09-30T00:26:09;12.60;;;7.47;;
33830;SDS011;20137;48.834;8.732;2022-09-30T00:28:38;13.05;;;7.50;;
33830;SDS011;20137;48.834;8.732;2022-09-30T00:31:05;12.07;;;7.60;;
33830;SDS011;20137;48.834;8.732;2022-09-30T00:33:33;16.70;;;7.90;;
33830;SDS011;20137;48.834;8.732;2022-09-30T00:35:59;11.15;;;7.30;;
33830;SDS011;20137;48.834;8.732;2022-09-30T00:38:26;13.48;;;7.68;;
33830;SDS011;20137;48.834;8.732;2022-09-30T00:40:51;13.40;;;7.47;;
33830;SDS011;20137;48.834;8.732;2022-09-30T00:43:19;15.23;;;7.88;;
33830;SDS011;20137;48.834;8.732;2022-09-30T00:46:05;11.20;;;6.63;;
33830;SDS011;20137;48.834;8.732;2022-09-30T00:48:59;16.48;;;7.55;;
33830;SDS011;20137;48.834;8.732;2022-09-30T00:51:30;13.15;;;7.57;;
33830;SDS011;20137;48.834;8.732;2022-09-30T00:54:00;13.43;;;7.15;;
33830;SDS011;20137;48.834;8.732;2022-09-30T00:56:32;15.57;;;7.25;;
33830;SDS011;20137;48.834;8.732;2022-09-30T00:59:07;13.90;;;7.20;;
33830;SDS011;20137;48.834;8.732;2022-09-30T01:01:39;12.02;;;6.70;;
33830;SDS011;20137;48.834;8.732;2022-09-30T01:04:08;12.32;;;6.65;;
33830;SDS011;20137;48.834;8.732;2022-09-30T01:06:45;13.85;;;6.88;;
33830;SDS011;20137;48.834;8.732;2022-09-30T01:09:11;10.65;;;6.60;;
33830;SDS011;20137;48.834;8.732;2022-09-30T01:11:36;14.18;;;7.25;;
33830;SDS011;20137;48.834;8.732;2022-09-30T01:14:16;12.85;;;7.38;;
33830;SDS011;20137;48.834;8.732;2022-09-30T01:16:54;13.27;;;7.07;;
33830;SDS011;20137;48.834;8.732;2022-09-30T01:25:16;13.80;;;8.10;;
33830;SDS011;20137;48.834;8.732;2022-09-30T01:30:54;12.68;;;7.82;;
33830;SDS011;20137;48.834;8.732;2022-09-30T01:39:12;17.00;;;7.75;;
33830;SDS011;20137;48.834;8.732;2022-09-30T01:50:02;11.98;;;6.70;;
33830;SDS011;20137;48.834;8.732;2022-09-30T01:52:41;14.13;;;6.03;;
33830;SDS011;20137;48.834;8.732;2022-09-30T01:55:28;13.85;;;7.03;;
33830;SDS011;20137;48.834;8.732;2022-09-30T02:00:46;13.25;;;6.95;;
33830;SDS011;20137;48.834;8.732;2022-09-30T02:03:19;10.63;;;6.07;;
33830;SDS011;20137;48.834;8.732;2022-09-30T02:06:01;8.70;;;6.00;;
33830;SDS011;20137;48.834;8.732;2022-09-30T02:08:34;10.07;;;6.35;;
33830;SDS011;20137;48.834;8.732;2022-09-30T02:11:15;15.65;;;6.13;;
33830;SDS011;20137;48.834;8.732;2022-09-30T02:16:25;13.20;;;5.72;;
33830;SDS011;20137;48.834;8.732;2022-09-30T02:21:26;14.82;;;7.50;;
33830;SDS011;20137;48.834;8.732;2022-09-30T02:23:59;17.60;;;8.25;;
33830;SDS011;20137;48.834;8.732;2022-09-30T02:26:31;12.93;;;8.30;;
33830;SDS011;20137;48.834;8.732;2022-09-30T02:29:10;14.48;;;9.00;;
33830;SDS011;20137;48.834;8.732;2022-09-30T02:31:47;18.00;;;10.57;;
33830;SDS011;20137;48.834;8.732;2022-09-30T02:34:20;21.02;;;11.20;;
33830;SDS011;20137;48.834;8.732;2022-09-30T02:36:53;20.88;;;11.02;;
33830;SDS011;20137;48.834;8.732;2022-09-30T02:42:35;23.00;;;12.45;;
33830;SDS011;20137;48.834;8.732;2022-09-30T02:45:05;22.70;;;13.35;;
33830;SDS011;20137;48.834;8.732;2022-09-30T02:47:45;31.25;;;14.07;;
33830;SDS011;20137;48.834;8.732;2022-09-30T02:53:07;31.45;;;15.02;;
33830;SDS011;20137;48.834;8.732;2022-09-30T02:58:24;30.70;;;15.70;;
33830;SDS011;20137;48.834;8.732;2022-09-30T03:00:51;33.47;;;17.92;;
33830;SDS011;20137;48.834;8.732;2022-09-30T03:03:19;28.60;;;16.63;;
33830;SDS011;20137;48.834;8.732;2022-09-30T03:05:49;32.42;;;17.30;;
33830;SDS011;20137;48.834;8.732;2022-09-30T03:08:16;39.78;;;19.63;;
33830;SDS011;20137;48.834;8.732;2022-09-30T03:10:42;32.03;;;17.67;;
33830;SDS011;20137;48.834;8.732;2022-09-30T03:26:19;37.92;;;20.55;;
33830;SDS011;20137;48.834;8.732;2022-09-30T03:29:14;37.03;;;19.50;;
33830;SDS011;20137;48.834;8.732;2022-09-30T03:34:30;30.10;;;18.40;;
33830;SDS011;20137;48.834;8.732;2022-09-30T03:37:59;35.70;;;18.05;;
33830;SDS011;20137;48.834;8.732;2022-09-30T03:43:19;30.30;;;17.30;;
33830;SDS011;20137;48.834;8.732;2022-09-30T03:46:05;28.08;;;16.58;;
33830;SDS011;20137;48.834;8.732;2022-09-30T03:48:42;28.73;;;14.75;;
33830;SDS011;20137;48.834;8.732;2022-09-30T03:51:10;23.30;;;15.07;;
33830;SDS011;20137;48.834;8.732;2022-09-30T03:53:40;26.73;;;15.35;;
33830;SDS011;20137;48.834;8.732;2022-09-30T03:56:07;28.30;;;14.63;;
33830;SDS011;20137;48.834;8.732;2022-09-30T03:58:33;25.48;;;14.68;;
33830;SDS011;20137;48.834;8.732;2022-09-30T04:01:03;29.60;;;14.57;;
33830;SDS011;20137;48.834;8.732;2022-09-30T04:03:29;25.60;;;14.18;;
33830;SDS011;20137;48.834;8.732;2022-09-30T04:05:54;26.85;;;14.68;;
33830;SDS011;20137;48.834;8.732;2022-09-30T04:08:20;27.75;;;14.10;;
33830;SDS011;20137;48.834;8.732;2022-09-30T04:10:46;24.15;;;12.27;;
33830;SDS011;20137;48.834;8.732;2022-09-30T04:13:12;25.63;;;12.30;;
33830;SDS011;20137;48.834;8.732;2022-09-30T04:15:38;19.38;;;12.05;;
33830;SDS011;20137;48.834;8.732;2022-09-30T04:18:04;21.02;;;11.90;;
33830;SDS011;20137;48.834;8.732;2022-09-30T04:20:30;20.20;;;11.65;;
33830;SDS011;20137;48.834;8.732;2022-09-30T04:22:57;22.33;;;11.60;;
33830;SDS011;20137;48.834;8.732;2022-09-30T04:25:26;16.40;;;9.65;;
33830;SDS011;20137;48.834;8.732;2022-09-30T04:27:53;19.48;;;10.68;;
33830;SDS011;20137;48.834;8.732;2022-09-30T04:30:19;17.73;;;9.35;;
33830;SDS011;20137;48.834;8.732;2022-09-30T04:32:45;18.45;;;10.55;;
33830;SDS011;20137;48.834;8.732;2022-09-30T04:35:11;19.05;;;9.93;;
33830;SDS011;20137;48.834;8.732;2022-09-30T04:37:43;18.25;;;10.93;;
33830;SDS011;20137;48.834;8.732;2022-09-30T04:40:11;22.58;;;10.63;;
33830;SDS011;20137;48.834;8.732;2022-09-30T04:42:38;17.45;;;9.80;;
33830;SDS011;20137;48.834;8.732;2022-09-30T04:45:07;21.27;;;9.40;;
33830;SDS011;20137;48.834;8.732;2022-09-30T04:47:34;19.10;;;10.00;;
33830;SDS011;20137;48.834;8.732;2022-09-30T04:49:59;22.40;;;11.18;;
33830;SDS011;20137;48.834;8.732;2022-09-30T04:52:25;19.27;;;11.07;;
33830;SDS011;20137;48.834;8.732;2022-09-30T04:54:51;16.58;;;11.15;;
33830;SDS011;20137;48.834;8.732;2022-09-30T04:57:18;18.30;;;11.15;;
33830;SDS011;20137;48.834;8.732;2022-09-30T04:59:44;18.05;;;11.10;;
33830;SDS011;20137;48.834;8.732;2022-09-30T05:02:09;17.38;;;10.52;;
33830;SDS011;20137;48.834;8.732;2022-09-30T05:04:37;21.58;;;10.45;;
33830;SDS011;20137;48.834;8.732;2022-09-30T05:07:03;20.67;;;12.15;;
33830;SDS011;20137;48.834;8.732;2022-09-30T05:09:33;17.65;;;11.02;;
33830;SDS011;20137;48.834;8.732;2022-09-30T05:11:59;20.95;;;12.40;;
33830;SDS011;20137;48.834;8.732;2022-09-30T05:14:27;23.95;;;13.45;;
33830;SDS011;20137;48.834;8.732;2022-09-30T05:16:53;20.50;;;13.30;;
33830;SDS011;20137;48.834;8.732;2022-09-30T05:19:19;18.30;;;11.57;;
33830;SDS011;20137;48.834;8.732;2022-09-30T05:21:45;19.40;;;11.15;;
33830;SDS011;20137;48.834;8.732;2022-09-30T05:24:11;20.25;;;11.43;;
33830;SDS011;20137;48.834;8.732;2022-09-30T05:26:37;24.33;;;11.43;;
33830;SDS011;20137;48.834;8.732;2022-09-30T05:29:04;15.80;;;10.07;;
33830;SDS011;20137;48.834;8.732;2022-09-30T05:31:30;15.95;;;9.75;;
33830;SDS011;20137;48.834;8.732;2022-09-30T05:33:57;15.73;;;10.15;;
33830;SDS011;20137;48.834;8.732;2022-09-30T05:36:22;16.90;;;9.85;;
33830;SDS011;20137;48.834;8.732;2022-09-30T05:38:51;16.58;;;10.40;;
33830;SDS011;20137;48.834;8.732;2022-09-30T05:41:18;22.33;;;11.00;;
33830;SDS011;20137;48.834;8.732;2022-09-30T05:43:48;17.00;;;10.63;;
33830;SDS011;20137;48.834;8.732;2022-09-30T05:46:14;19.58;;;11.10;;
33830;SDS011;20137;48.834;8.732;2022-09-30T05:48:41;19.48;;;10.85;;
33830;SDS011;20137;48.834;8.732;2022-09-30T05:51:07;19.42;;;12.00;;
33830;SDS011;20137;48.834;8.732;2022-09-30T05:53:33;20.10;;;11.35;;
33830;SDS011;20137;48.834;8.732;2022-09-30T05:56:07;16.42;;;10.00;;
33830;SDS011;20137;48.834;8.732;2022-09-30T05:58:34;16.42;;;10.18;;
33830;SDS011;20137;48.834;8.732;2022-09-30T06:01:04;13.27;;;7.80;;
33830;SDS011;20137;48.834;8.732;2022-09-30T06:03:32;9.88;;;5.85;;
33830;SDS011;20137;48.834;8.732;2022-09-30T06:05:59;15.32;;;7.43;;
33830;SDS011;20137;48.834;8.732;2022-09-30T06:08:25;20.35;;;11.45;;
33830;SDS011;20137;48.834;8.732;2022-09-30T06:10:50;21.90;;;11.80;;
33830;SDS011;20137;48.834;8.732;2022-09-30T06:13:16;21.58;;;11.60;;
33830;SDS011;20137;48.834;8.732;2022-09-30T06:15:42;21.13;;;12.30;;
33830;SDS011;20137;48.834;8.732;2022-09-30T06:18:08;30.30;;;15.75;;
33830;SDS011;20137;48.834;8.732;2022-09-30T06:20:36;44.72;;;20.58;;
33830;SDS011;20137;48.834;8.732;2022-09-30T06:23:02;46.65;;;20.67;;
33830;SDS011;20137;48.834;8.732;2022-09-30T06:25:28;34.97;;;17.10;;
33830;SDS011;20137;48.834;8.732;2022-09-30T06:27:54;11.75;;;6.80;;
33830;SDS011;20137;48.834;8.732;2022-09-30T06:30:21;18.30;;;8.30;;
33830;SDS011;20137;48.834;8.732;2022-09-30T06:32:46;17.40;;;8.10;;
33830;SDS011;20137;48.834;8.732;2022-09-30T06:35:12;14.73;;;7.75;;
33830;SDS011;20137;48.834;8.732;2022-09-30T06:37:38;12.88;;;9.43;;
33830;SDS011;20137;48.834;8.732;2022-09-30T06:40:04;15.55;;;7.57;;
33830;SDS011;20137;48.834;8.732;2022-09-30T06:42:31;10.10;;;7.38;;
33830;SDS011;20137;48.834;8.732;2022-09-30T06:44:57;15.48;;;6.25;;
33830;SDS011;20137;48.834;8.732;2022-09-30T06:47:23;9.52;;;5.30;;
33830;SDS011;20137;48.834;8.732;2022-09-30T06:49:49;7.88;;;5.05;;
33830;SDS011;20137;48.834;8.732;2022-09-30T06:52:17;12.25;;;5.20;;
33830;SDS011;20137;48.834;8.732;2022-09-30T06:54:44;10.02;;;5.38;;
33830;SDS011;20137;48.834;8.732;2022-09-30T06:57:10;11.18;;;6.20;;
33830;SDS011;20137;48.834;8.732;2022-09-30T06:59:37;15.43;;;6.47;;
33830;SDS011;20137;48.834;8.732;2022-09-30T07:02:02;10.70;;;6.05;;
33830;SDS011;20137;48.834;8.732;2022-09-30T07:04:32;9.95;;;6.40;;
33830;SDS011;20137;48.834;8.732;2022-09-30T07:06:58;8.80;;;5.35;;
33830;SDS011;20137;48.834;8.732;2022-09-30T07:09:24;12.23;;;8.20;;
33830;SDS011;20137;48.834;8.732;2022-09-30T07:11:49;14.32;;;7.47;;
33830;SDS011;20137;48.834;8.732;2022-09-30T07:14:15;9.65;;;6.65;;
33830;SDS011;20137;48.834;8.732;2022-09-30T07:16:41;6.50;;;4.45;;
33830;SDS011;20137;48.834;8.732;2022-09-30T07:19:09;6.35;;;4.20;;
33830;SDS011;20137;48.834;8.732;2022-09-30T07:21:35;9.85;;;4.88;;
33830;SDS011;20137;48.834;8.732;2022-09-30T07:24:01;11.85;;;4.97;;
33830;SDS011;20137;48.834;8.732;2022-09-30T07:26:27;7.20;;;4.75;;
33830;SDS011;20137;48.834;8.732;2022-09-30T07:28:53;9.40;;;5.10;;
33830;SDS011;20137;48.834;8.732;2022-09-30T07:31:22;9.98;;;4.60;;
33830;SDS011;20137;48.834;8.732;2022-09-30T07:33:49;8.88;;;5.70;;
33830;SDS011;20137;48.834;8.732;2022-09-30T07:36:16;7.18;;;4.70;;
33830;SDS011;20137;48.834;8.732;2022-09-30T07:41:18;17.98;;;6.05;;
33830;SDS011;20137;48.834;8.732;2022-09-30T07:43:49;12.13;;;5.53;;
33830;SDS011;20137;48.834;8.732;2022-09-30T07:46:16;13.52;;;6.30;;
33830;SDS011;20137;48.834;8.732;2022-09-30T07:48:45;8.82;;;5.80;;
33830;SDS011;20137;48.834;8.732;2022-09-30T07:51:18;8.95;;;4.68;;
33830;SDS011;20137;48.834;8.732;2022-09-30T07:53:48;8.18;;;5.07;;
33830;SDS011;20137;48.834;8.732;2022-09-30T07:56:15;12.02;;;5.95;;
33830;SDS011;20137;48.834;8.732;2022-09-30T07:58:42;15.85;;;7.05;;
33830;SDS011;20137;48.834;8.732;2022-09-30T08:01:08;12.13;;;5.90;;
33830;SDS011;20137;48.834;8.732;2022-09-30T08:03:37;14.70;;;6.10;;
33830;SDS011;20137;48.834;8.732;2022-09-30T08:06:07;14.13;;;7.07;;
33830;SDS011;20137;48.834;8.732;2022-09-30T08:08:34;10.65;;;5.47;;
33830;SDS011;20137;48.834;8.732;2022-09-30T08:11:01;9.70;;;5.30;;
33830;SDS011;20137;48.834;8.732;2022-09-30T08:13:27;10.15;;;5.65;;
33830;SDS011;20137;48.834;8.732;2022-09-30T08:15:53;9.30;;;5.60;;
33830;SDS011;20137;48.834;8.732;2022-09-30T08:18:19;13.10;;;6.53;;
33830;SDS011;20137;48.834;8.732;2022-09-30T08:20:44;11.82;;;5.70;;
33830;SDS011;20137;48.834;8.732;2022-09-30T08:23:10;31.33;;;12.88;;
33830;SDS011;20137;48.834;8.732;2022-09-30T08:25:36;21.63;;;10.52;;
33830;SDS011;20137;48.834;8.732;2022-09-30T08:28:02;18.40;;;8.30;;
33830;SDS011;20137;48.834;8.732;2022-09-30T08:30:28;12.48;;;6.65;;
33830;SDS011;20137;48.834;8.732;2022-09-30T08:32:53;23.10;;;10.27;;
33830;SDS011;20137;48.834;8.732;2022-09-30T08:35:19;24.02;;;11.43;;
33830;SDS011;20137;48.834;8.732;2022-09-30T08:37:45;11.60;;;5.78;;
33830;SDS011;20137;48.834;8.732;2022-09-30T08:40:18;9.65;;;5.78;;
33830;SDS011;20137;48.834;8.732;2022-09-30T08:42:51;15.85;;;6.50;;
33830;SDS011;20137;48.834;8.732;2022-09-30T08:46:00;19.05;;;8.23;;
33830;SDS011;20137;48.834;8.732;2022-09-30T08:49:00;13.50;;;6.93;;
33830;SDS011;20137;48.834;8.732;2022-09-30T08:51:34;17.73;;;7.22;;
33830;SDS011;20137;48.834;8.732;2022-09-30T08:54:05;16.23;;;7.32;;
33830;SDS011;20137;48.834;8.732;2022-09-30T08:56:37;13.93;;;7.53;;
33830;SDS011;20137;48.834;8.732;2022-09-30T08:59:04;13.23;;;7.68;;
33830;SDS011;20137;48.834;8.732;2022-09-30T09:01:37;13.90;;;6.38;;
33830;SDS011;20137;48.834;8.732;2022-09-30T09:04:10;13.25;;;6.38;;
33830;SDS011;20137;48.834;8.732;2022-09-30T09:06:52;16.38;;;6.95;;
33830;SDS011;20137;48.834;8.732;2022-09-30T09:09:42;13.43;;;6.80;;
33830;SDS011;20137;48.834;8.732;2022-09-30T09:20:33;13.27;;;5.60;;
33830;SDS011;20137;48.834;8.732;2022-09-30T09:23:07;11.40;;;6.85;;
33830;SDS011;20137;48.834;8.732;2022-09-30T09:25:35;10.90;;;6.40;;
33830;SDS011;20137;48.834;8.732;2022-09-30T09:28:02;11.38;;;5.65;;
33830;SDS011;20137;48.834;8.732;2022-09-30T09:30:48;11.55;;;6.38;;
33830;SDS011;20137;48.834;8.732;2022-09-30T09:33:19;10.50;;;5.85;;
33830;SDS011;20137;48.834;8.732;2022-09-30T09:35:57;12.73;;;6.05;;
33830;SDS011;20137;48.834;8.732;2022-09-30T09:41:32;10.43;;;5.88;;
33830;SDS011;20137;48.834;8.732;2022-09-30T09:46:47;11.73;;;6.38;;
33830;SDS011;20137;48.834;8.732;2022-09-30T09:54:38;12.85;;;6.50;;
33830;SDS011;20137;48.834;8.732;2022-09-30T09:57:15;9.55;;;6.18;;
33830;SDS011;20137;48.834;8.732;2022-09-30T10:03:12;11.90;;;6.10;;
33830;SDS011;20137;48.834;8.732;2022-09-30T10:06:21;14.70;;;5.70;;
33830;SDS011;20137;48.834;8.732;2022-09-30T10:08:53;9.95;;;5.60;;
33830;SDS011;20137;48.834;8.732;2022-09-30T10:11:20;10.73;;;5.38;;
33830;SDS011;20137;48.834;8.732;2022-09-30T10:13:48;6.55;;;4.70;;
33830;SDS011;20137;48.834;8.732;2022-09-30T10:16:33;10.07;;;5.85;;
33830;SDS011;20137;48.834;8.732;2022-09-30T10:19:01;9.00;;;5.70;;
33830;SDS011;20137;48.834;8.732;2022-09-30T10:21:29;8.40;;;4.93;;
33830;SDS011;20137;48.834;8.732;2022-09-30T10:23:55;8.82;;;5.30;;
33830;SDS011;20137;48.834;8.732;2022-09-30T10:26:28;8.70;;;4.45;;
33830;SDS011;20137;48.834;8.732;2022-09-30T10:28:55;9.35;;;4.28;;
33830;SDS011;20137;48.834;8.732;2022-09-30T10:36:35;10.40;;;4.00;;
33830;SDS011;20137;48.834;8.732;2022-09-30T10:39:17;4.90;;;3.35;;
33830;SDS011;20137;48.834;8.732;2022-09-30T10:41:48;7.10;;;3.55;;
33830;SDS011;20137;48.834;8.732;2022-09-30T10:44:14;8.75;;;3.40;;
33830;SDS011;20137;48.834;8.732;2022-09-30T10:46:43;6.10;;;3.35;;
33830;SDS011;20137;48.834;8.732;2022-09-30T10:49:28;5.05;;;2.92;;
33830;SDS011;20137;48.834;8.732;2022-09-30T10:52:13;6.30;;;3.00;;
33830;SDS011;20137;48.834;8.732;2022-09-30T10:55:00;5.95;;;3.15;;
33830;SDS011;20137;48.834;8.732;2022-09-30T10:57:32;10.05;;;3.22;;
33830;SDS011;20137;48.834;8.732;2022-09-30T11:00:06;8.43;;;3.25;;
33830;SDS011;20137;48.834;8.732;2022-09-30T11:02:48;10.02;;;3.38;;
33830;SDS011;20137;48.834;8.732;2022-09-30T11:07:56;6.68;;;3.33;;
33830;SDS011;20137;48.834;8.732;2022-09-30T11:21:40;3.53;;;1.73;;
33830;SDS011;20137;48.834;8.732;2022-09-30T11:32:27;5.43;;;3.05;;
33830;SDS011;20137;48.834;8.732;2022-09-30T11:40:33;9.80;;;2.97;;
33830;SDS011;20137;48.834;8.732;2022-09-30T11:57:06;4.20;;;1.60;;
33830;SDS011;20137;48.834;8.732;2022-09-30T11:59:35;3.33;;;1.75;;
33830;SDS011;20137;48.834;8.732;2022-09-30T12:02:28;3.05;;;2.00;;
33830;SDS011;20137;48.834;8.732;2022-09-30T12:05:02;6.50;;;1.90;;
33830;SDS011;20137;48.834;8.732;2022-09-30T12:07:41;5.75;;;2.30;;
33830;SDS011;20137;48.834;8.732;2022-09-30T12:10:15;5.65;;;2.72;;
33830;SDS011;20137;48.834;8.732;2022-09-30T12:12:57;4.38;;;2.17;;
33830;SDS011;20137;48.834;8.732;2022-09-30T12:15:27;7.40;;;2.33;;
33830;SDS011;20137;48.834;8.732;2022-09-30T12:20:26;4.82;;;2.92;;
33830;SDS011;20137;48.834;8.732;2022-09-30T12:25:50;6.43;;;3.28;;
33830;SDS011;20137;48.834;8.732;2022-09-30T12:31:22;7.82;;;3.90;;
33830;SDS011;20137;48.834;8.732;2022-09-30T12:47:43;6.93;;;3.60;;
33830;SDS011;20137;48.834;8.732;2022-09-30T12:50:20;5.88;;;3.67;;
33830;SDS011;20137;48.834;8.732;2022-09-30T12:52:50;7.53;;;3.47;;
33830;SDS011;20137;48.834;8.732;2022-09-30T12:57:52;8.30;;;3.05;;
33830;SDS011;20137;48.834;8.732;2022-09-30T13:00:24;7.25;;;3.45;;
33830;SDS011;20137;48.834;8.732;2022-09-30T13:02:56;6.25;;;2.83;;
33830;SDS011;20137;48.834;8.732;2022-09-30T13:13:27;7.60;;;3.17;;
33830;SDS011;20137;48.834;8.732;2022-09-30T13:16:01;11.63;;;6.15;;
33830;SDS011;20137;48.834;8.732;2022-09-30T13:23:47;9.23;;;4.10;;
33830;SDS011;20137;48.834;8.732;2022-09-30T13:28:48;6.00;;;3.67;;
33830;SDS011;20137;48.834;8.732;2022-09-30T13:36:30;7.13;;;2.90;;
33830;SDS011;20137;48.834;8.732;2022-09-30T13:39:18;11.00;;;4.55;;
33830;SDS011;20137;48.834;8.732;2022-09-30T13:47:49;6.18;;;3.17;;
33830;SDS011;20137;48.834;8.732;2022-09-30T13:52:40;5.70;;;3.00;;
33830;SDS011;20137;48.834;8.732;2022-09-30T13:55:20;6.03;;;3.50;;
33830;SDS011;20137;48.834;8.732;2022-09-30T14:12:23;5.28;;;3.42;;
33830;SDS011;20137;48.834;8.732;2022-09-30T14:15:07;10.52;;;3.72;;
33830;SDS011;20137;48.834;8.732;2022-09-30T14:20:23;10.07;;;4.27;;
33830;SDS011;20137;48.834;8.732;2022-09-30T14:23:13;8.23;;;4.60;;
33830;SDS011;20137;48.834;8.732;2022-09-30T14:25:41;8.40;;;3.90;;
33830;SDS011;20137;48.834;8.732;2022-09-30T14:33:40;7.20;;;3.80;;
33830;SDS011;20137;48.834;8.732;2022-09-30T14:36:16;7.20;;;3.30;;
33830;SDS011;20137;48.834;8.732;2022-09-30T14:38:51;5.82;;;2.95;;
33830;SDS011;20137;48.834;8.732;2022-09-30T14:41:22;11.73;;;3.60;;
33830;SDS011;20137;48.834;8.732;2022-09-30T14:43:51;8.80;;;3.15;;
33830;SDS011;20137;48.834;8.732;2022-09-30T14:46:28;8.65;;;4.15;;
33830;SDS011;20137;48.834;8.732;2022-09-30T14:49:02;7.30;;;4.07;;
33830;SDS011;20137;48.834;8.732;2022-09-30T14:51:36;9.75;;;3.78;;
33830;SDS011;20137;48.834;8.732;2022-09-30T14:54:15;7.45;;;4.00;;
33830;SDS011;20137;48.834;8.732;2022-09-30T14:56:47;11.50;;;3.88;;
33830;SDS011;20137;48.834;8.732;2022-09-30T14:59:21;7.70;;;3.33;;
33830;SDS011;20137;48.834;8.732;2022-09-30T15:02:18;7.88;;;3.42;;
33830;SDS011;20137;48.834;8.732;2022-09-30T15:04:48;9.63;;;4.07;;
33830;SDS011;20137;48.834;8.732;2022-09-30T15:07:16;11.60;;;4.03;;
33830;SDS011;20137;48.834;8.732;2022-09-30T15:09:44;8.55;;;3.63;;
33830;SDS011;20137;48.834;8.732;2022-09-30T15:12:12;8.38;;;3.67;;
33830;SDS011;20137;48.834;8.732;2022-09-30T15:14:50;11.13;;;4.28;;
33830;SDS011;20137;48.834;8.732;2022-09-30T15:17:19;6.65;;;3.75;;
33830;SDS011;20137;48.834;8.732;2022-09-30T15:19:51;6.25;;;4.03;;
33830;SDS011;20137;48.834;8.732;2022-09-30T15:22:18;6.38;;;4.20;;
33830;SDS011;20137;48.834;8.732;2022-09-30T15:24:46;9.77;;;4.80;;
33830;SDS011;20137;48.834;8.732;2022-09-30T15:27:21;7.50;;;4.53;;
33830;SDS011;20137;48.834;8.732;2022-09-30T15:29:53;10.77;;;5.35;;
33830;SDS011;20137;48.834;8.732;2022-09-30T15:32:21;9.60;;;4.57;;
33830;SDS011;20137;48.834;8.732;2022-09-30T15:34:50;11.88;;;5.47;;
33830;SDS011;20137;48.834;8.732;2022-09-30T15:37:34;8.23;;;5.15;;
33830;SDS011;20137;48.834;8.732;2022-09-30T15:40:00;9.02;;;4.97;;
33830;SDS011;20137;48.834;8.732;2022-09-30T15:48:01;15.82;;;5.97;;
33830;SDS011;20137;48.834;8.732;2022-09-30T16:04:42;9.95;;;5.68;;
33830;SDS011;20137;48.834;8.732;2022-09-30T16:06:54;12.15;;;6.38;;
33830;SDS011;20137;48.834;8.732;2022-09-30T16:09:38;10.65;;;5.80;;
33830;SDS011;20137;48.834;8.732;2022-09-30T16:12:48;31.70;;;12.70;;
33830;SDS011;20137;48.834;8.732;2022-09-30T16:17:38;19.38;;;12.75;;
33830;SDS011;20137;48.834;8.732;2022-09-30T16:20:30;15.68;;;8.60;;
33830;SDS011;20137;48.834;8.732;2022-09-30T16:28:00;21.00;;;10.57;;
33830;SDS011;20137;48.834;8.732;2022-09-30T16:32:54;11.93;;;8.25;;
33830;SDS011;20137;48.834;8.732;2022-09-30T16:35:23;21.10;;;12.73;;
33830;SDS011;20137;48.834;8.732;2022-09-30T16:37:56;15.20;;;7.90;;
33830;SDS011;20137;48.834;8.732;2022-09-30T16:40:25;11.60;;;7.00;;
33830;SDS011;20137;48.834;8.732;2022-09-30T16:42:52;11.95;;;7.35;;
33830;SDS011;20137;48.834;8.732;2022-09-30T16:45:25;15.23;;;10.63;;
33830;SDS011;20137;48.834;8.732;2022-09-30T16:47:52;10.02;;;7.10;;
33830;SDS011;20137;48.834;8.732;2022-09-30T16:50:30;16.33;;;8.02;;
33830;SDS011;20137;48.834;8.732;2022-09-30T16:53:02;9.90;;;6.97;;
33830;SDS011;20137;48.834;8.732;2022-09-30T16:55:28;14.88;;;9.63;;
33830;SDS011;20137;48.834;8.732;2022-09-30T16:57:54;14.80;;;8.82;;
33830;SDS011;20137;48.834;8.732;2022-09-30T17:00:22;14.60;;;9.25;;
33830;SDS011;20137;48.834;8.732;2022-09-30T17:02:48;43.85;;;24.67;;
33830;SDS011;20137;48.834;8.732;2022-09-30T17:05:18;63.40;;;35.83;;
33830;SDS011;20137;48.834;8.732;2022-09-30T17:07:45;44.80;;;27.35;;
33830;SDS011;20137;48.834;8.732;2022-09-30T17:10:47;22.73;;;15.68;;
33830;SDS011;20137;48.834;8.732;2022-09-30T17:13:06;19.45;;;12.48;;
33830;SDS011;20137;48.834;8.732;2022-09-30T17:15:32;32.05;;;17.60;;
33830;SDS011;20137;48.834;8.732;2022-09-30T17:18:02;37.08;;;18.92;;
33830;SDS011;20137;48.834;8.732;2022-09-30T17:20:31;34.58;;;17.73;;
33830;SDS011;20137;48.834;8.732;2022-09-30T17:22:57;31.05;;;18.80;;
33830;SDS011;20137;48.834;8.732;2022-09-30T17:25:23;26.98;;;17.27;;
33830;SDS011;20137;48.834;8.732;2022-09-30T17:27:49;27.85;;;16.63;;
33830;SDS011;20137;48.834;8.732;2022-09-30T17:30:15;30.75;;;18.55;;
33830;SDS011;20137;48.834;8.732;2022-09-30T17:32:42;28.48;;;15.73;;
33830;SDS011;20137;48.834;8.732;2022-09-30T17:35:08;22.65;;;14.98;;
33830;SDS011;20137;48.834;8.732;2022-09-30T17:37:34;24.77;;;14.20;;
33830;SDS011;20137;48.834;8.732;2022-09-30T17:40:01;30.92;;;15.10;;
33830;SDS011;20137;48.834;8.732;2022-09-30T17:42:47;23.85;;;13.45;;
33830;SDS011;20137;48.834;8.732;2022-09-30T17:45:31;23.90;;;13.18;;
33830;SDS011;20137;48.834;8.732;2022-09-30T17:47:58;18.27;;;12.25;;
33830;SDS011;20137;48.834;8.732;2022-09-30T17:50:24;20.52;;;12.43;;
33830;SDS011;20137;48.834;8.732;2022-09-30T17:52:49;16.40;;;11.48;;
33830;SDS011;20137;48.834;8.732;2022-09-30T17:55:15;22.42;;;14.32;;
33830;SDS011;20137;48.834;8.732;2022-09-30T17:57:41;22.38;;;13.85;;
33830;SDS011;20137;48.834;8.732;2022-09-30T18:00:07;25.25;;;14.57;;
33830;SDS011;20137;48.834;8.732;2022-09-30T18:02:33;18.63;;;12.55;;
33830;SDS011;20137;48.834;8.732;2022-09-30T18:04:58;17.10;;;11.52;;
33830;SDS011;20137;48.834;8.732;2022-09-30T18:07:24;18.58;;;11.30;;
33830;SDS011;20137;48.834;8.732;2022-09-30T18:09:51;17.55;;;11.70;;
33830;SDS011;20137;48.834;8.732;2022-09-30T18:12:17;17.40;;;12.10;;
33830;SDS011;20137;48.834;8.732;2022-09-30T18:14:43;24.75;;;12.65;;
33830;SDS011;20137;48.834;8.732;2022-09-30T18:17:09;24.35;;;13.07;;
33830;SDS011;20137;48.834;8.732;2022-09-30T18:19:36;18.30;;;11.98;;
33830;SDS011;20137;48.834;8.732;2022-09-30T18:22:02;14.77;;;11.02;;
33830;SDS011;20137;48.834;8.732;2022-09-30T18:24:28;16.27;;;10.65;;
33830;SDS011;20137;48.834;8.732;2022-09-30T18:27:12;17.23;;;10.77;;
33830;SDS011;20137;48.834;8.732;2022-09-30T18:29:39;14.15;;;9.10;;
33830;SDS011;20137;48.834;8.732;2022-09-30T18:32:04;17.20;;;9.55;;
33830;SDS011;20137;48.834;8.732;2022-09-30T18:34:30;12.85;;;8.07;;
33830;SDS011;20137;48.834;8.732;2022-09-30T18:36:57;11.25;;;7.75;;
33830;SDS011;20137;48.834;8.732;2022-09-30T18:39:27;11.68;;;8.63;;
33830;SDS011;20137;48.834;8.732;2022-09-30T18:41:58;17.00;;;8.60;;
33830;SDS011;20137;48.834;8.732;2022-09-30T18:44:25;18.65;;;8.30;;
33830;SDS011;20137;48.834;8.732;2022-09-30T18:46:51;12.07;;;8.48;;
33830;SDS011;20137;48.834;8.732;2022-09-30T18:49:20;12.40;;;8.57;;
33830;SDS011;20137;48.834;8.732;2022-09-30T18:51:46;14.68;;;8.73;;